Pagrindinis puslapis
METAR-TAF:

METAR-TAF

Oro uostai :

Kufra, Libija

platuma: 24-13N, ilguma: 023-18E, Aukštis: 417 m

METAR: trūkstamas

Laikas: 17:28 (15:28 UTC)

Prognozė

Ataskaita buvo paskelbta 4 valandos ir 28 minutes, ne 11:00 UTC
Prognozė galioja nuo 25 metu 12 UTC su 26 metu 12 UTC
Vėjas 8 kt iš Šiaurės
Matomumas 10 km arba daugiau
nėra debesų žemiau 1500 m ir nėra kamuolinių lietaus debesų

TAF: HLKF 251100Z 2512/2612 36008KT CAVOK

Orai ataskaitas ir orų prognozės (METAR, TAF).

turimą stotys yra geltonos ir raudonos taškus žemėlapyje.

Perkelti pele per norėdami pamatyti stoties vardą.

Tada spustelėkite, norėdami matyti oro stebėjimo ir prognozės.

Norėdami pakeisti žemėlapį: spustelėkite ant žalios mygtukų su juodo kryžiaus žemyn,; žalią mygtuką su brūkšneliu, jei norite nutolinti; arba žalių rodyklių gretimoms žemėlapius.


METAR-TAF: